Time;durP1;ratioP1;P1;durP2;ratioP2;P2;SDS_P1;SDS_P2;PMS_P1;PMS_P2;Temp;Humidity;BMP_temperature;BMP_pressure;BME280_temperature;BME280_humidity;BME280_pressure;Samples;Min_cycle;Max_cycle;Signal;HPM_P1;HPM_P2
2023/12/18 00:00:34;;;;;;;;;22.67;22.33;;;;;5.78;71.57;103018.66;5070061;28;44949;-80
2023/12/18 00:03:00;;;;;;;;;23.67;20.33;;;;;5.68;72.24;102999.69;5061109;28;45080;-79
2023/12/18 00:05:25;;;;;;;;;22.00;21.00;;;;;6.19;71.56;103077.88;5057903;28;47041;-76
2023/12/18 00:07:50;;;;;;;;;31.00;23.67;;;;;5.77;71.94;103004.63;5074478;28;45125;-78
2023/12/18 00:10:16;;;;;;;;;27.33;22.33;;;;;6.84;71.74;103180.19;5072281;28;44902;-79
2023/12/18 00:12:41;;;;;;;;;25.67;23.00;;;;;6.83;71.49;103181.09;5073574;28;44909;-77
2023/12/18 00:15:07;;;;;;;;;25.33;23.00;;;;;6.85;72.02;103176.63;5072175;28;45640;-78
2023/12/18 00:17:33;;;;;;;;;27.00;22.67;;;;;6.60;72.11;103136.19;5063807;28;45595;-78
2023/12/18 00:19:59;;;;;;;;;29.00;25.67;;;;;6.01;71.78;103044.25;5062329;28;45436;-78
2023/12/18 00:22:24;;;;;;;;;24.67;21.67;;;;;6.07;71.68;103028.19;5052828;28;45376;-79
2023/12/18 00:24:49;;;;;;;;;23.33;20.00;;;;;6.88;71.86;103165.91;5066308;28;45582;-79
2023/12/18 00:27:15;;;;;;;;;22.67;20.00;;;;;6.88;71.36;103176.50;5064824;28;45100;-77
2023/12/18 00:29:40;;;;;;;;;32.67;22.00;;;;;5.97;71.55;103021.50;5061912;28;45013;-78
2023/12/18 00:32:06;;;;;;;;;27.67;21.33;;;;;4.96;72.14;102855.56;5063037;28;45207;-77
2023/12/18 00:34:32;;;;;;;;;21.00;18.00;;;;;5.68;71.95;102983.84;5061986;28;45740;-79
2023/12/18 00:36:57;;;;;;;;;28.00;21.33;;;;;5.96;72.31;103041.78;5053867;28;45007;-79
2023/12/18 00:39:22;;;;;;;;;25.67;22.67;;;;;6.15;72.38;103073.63;5061487;28;44970;-78
2023/12/18 00:41:48;;;;;;;;;29.00;24.67;;;;;6.55;72.46;103154.00;5072085;28;45202;-79
2023/12/18 00:44:13;;;;;;;;;27.33;20.67;;;;;6.70;72.57;103158.69;5075711;28;46247;-79
2023/12/18 00:46:39;;;;;;;;;25.00;22.33;;;;;6.26;71.91;103086.44;5073169;28;44984;-77
2023/12/18 00:49:04;;;;;;;;;28.67;25.33;;;;;6.74;72.10;103157.66;5060255;28;44882;-77
2023/12/18 00:51:29;;;;;;;;;22.67;20.67;;;;;6.81;71.88;103159.16;5053265;28;44957;-77
2023/12/18 00:53:58;;;;;;;;;23.33;20.67;;;;;6.86;71.50;103157.19;5066316;28;45707;-79
2023/12/18 00:56:24;;;;;;;;;20.00;15.33;;;;;6.93;71.42;103150.72;5065067;28;45229;-77
2023/12/18 00:58:49;;;;;;;;;21.67;19.00;;;;;6.90;70.77;103150.84;5058279;28;45115;-78
2023/12/18 01:01:14;;;;;;;;;20.33;17.33;;;;;5.94;70.29;102980.25;5063643;28;44934;-77
2023/12/18 01:03:40;;;;;;;;;23.67;18.33;;;;;6.51;69.95;103059.91;5065221;28;45522;-78
2023/12/18 01:06:05;;;;;;;;;29.67;21.67;;;;;7.03;70.03;103139.78;5056991;28;45330;-78
2023/12/18 01:08:31;;;;;;;;;21.00;17.00;;;;;6.83;70.43;103103.56;5062206;28;45404;-78
2023/12/18 01:10:56;;;;;;;;;22.67;20.33;;;;;6.97;69.98;103131.16;5056934;28;45208;-77
2023/12/18 01:13:22;;;;;;;;;22.33;19.00;;;;;6.97;69.60;103127.66;5062456;28;45293;-76
2023/12/18 01:15:48;;;;;;;;;24.00;19.67;;;;;6.88;69.52;103115.69;5073311;28;45186;-79
2023/12/18 01:18:14;;;;;;;;;19.00;18.00;;;;;6.19;69.59;103003.91;5054787;28;44968;-75
2023/12/18 01:20:39;;;;;;;;;20.67;19.00;;;;;6.81;69.74;103106.28;5056517;28;45267;-75
2023/12/18 01:23:05;;;;;;;;;17.33;14.33;;;;;6.79;69.67;103097.50;5052921;28;45531;-77
2023/12/18 01:25:31;;;;;;;;;21.33;20.33;;;;;6.86;69.79;103112.22;5067732;28;45022;-77
2023/12/18 01:27:57;;;;;;;;;16.00;13.00;;;;;6.89;69.25;103120.03;5067844;28;45047;-77
2023/12/18 01:30:22;;;;;;;;;16.67;16.00;;;;;6.51;69.86;103051.97;5058019;28;45165;-77
2023/12/18 01:32:51;;;;;;;;;17.00;16.00;;;;;6.92;69.49;103114.63;5051979;28;45714;-77
2023/12/18 01:35:16;;;;;;;;;18.67;14.00;;;;;6.93;69.28;103115.47;5066644;28;45008;-76
2023/12/18 01:37:42;;;;;;;;;27.67;22.67;;;;;6.57;68.69;103057.00;5052548;28;45111;-76
2023/12/18 01:40:08;;;;;;;;;22.67;19.00;;;;;6.68;68.75;103084.75;5066501;28;45000;-78
2023/12/18 01:42:33;;;;;;;;;20.00;19.00;;;;;5.36;69.20;102876.03;5055213;28;46024;-78
2023/12/18 01:44:59;;;;;;;;;15.33;13.00;;;;;6.62;68.86;103094.72;5057776;28;45103;-76
2023/12/18 01:47:24;;;;;;;;;22.00;15.00;;;;;6.89;68.90;103132.41;5052462;28;45040;-78
2023/12/18 01:49:50;;;;;;;;;19.67;17.67;;;;;5.75;68.90;102948.38;5067488;28;45058;-78
2023/12/18 01:52:17;;;;;;;;;23.33;17.00;;;;;6.86;68.88;103148.38;5059634;28;45382;-78
2023/12/18 01:54:44;;;;;;;;;18.00;16.33;;;;;5.94;68.39;102982.03;5063163;28;45004;-78
2023/12/18 01:57:11;;;;;;;;;21.00;16.67;;;;;5.68;68.71;102959.25;5069810;28;45516;-78
2023/12/18 01:59:36;;;;;;;;;20.67;18.33;;;;;6.50;68.90;103100.47;5066593;28;45501;-77
2023/12/18 02:02:02;;;;;;;;;19.67;15.00;;;;;6.64;69.24;103129.88;5052921;28;45154;-76
2023/12/18 02:04:28;;;;;;;;;17.00;14.67;;;;;5.47;69.24;102935.38;5060308;28;44916;-78
2023/12/18 02:06:54;;;;;;;;;21.33;18.00;;;;;6.62;69.03;103124.66;5051228;28;45160;-76
2023/12/18 02:09:20;;;;;;;;;20.33;16.00;;;;;6.62;69.16;103124.66;5063069;28;45151;-78
2023/12/18 02:11:46;;;;;;;;;13.00;12.00;;;;;6.61;69.06;103127.34;5055512;28;45815;-78
2023/12/18 02:14:14;;;;;;;;;20.67;20.33;;;;;6.62;69.21;103129.06;5055322;28;45029;-78
2023/12/18 02:16:40;;;;;;;;;23.00;18.33;;;;;6.64;69.48;103133.38;5049447;28;45204;-77
2023/12/18 02:19:23;;;;;;;;;18.33;16.00;;;;;6.55;69.39;103117.00;5057155;28;45378;-79
2023/12/18 02:21:49;;;;;;;;;25.00;17.67;;;;;6.67;69.12;103114.75;5050014;28;45485;-76
2023/12/18 02:24:15;;;;;;;;;21.67;18.67;;;;;6.49;68.91;103101.41;5065748;28;45053;-78
2023/12/18 02:26:40;;;;;;;;;19.00;18.00;;;;;6.06;69.00;103037.88;5051829;28;44933;-77
2023/12/18 02:29:06;;;;;;;;;18.33;16.67;;;;;6.71;69.31;103123.41;5055844;28;45353;-77
2023/12/18 02:31:35;;;;;;;;;20.00;18.00;;;;;6.72;69.11;103122.50;5049745;28;46586;-76
2023/12/18 02:34:00;;;;;;;;;16.33;16.00;;;;;6.32;69.17;103065.91;5053749;28;45166;-77
2023/12/18 02:36:25;;;;;;;;;20.00;17.67;;;;;6.70;68.39;103126.97;5042237;28;45526;-78
2023/12/18 02:38:51;;;;;;;;;21.33;15.67;;;;;6.67;68.34;103127.97;5040245;28;45802;-78
2023/12/18 02:41:16;;;;;;;;;21.67;15.33;;;;;6.60;68.95;103136.19;5052679;28;45052;-76
2023/12/18 02:43:41;;;;;;;;;17.67;16.33;;;;;6.55;68.42;103132.84;5067673;28;45261;-78
2023/12/18 02:46:07;;;;;;;;;18.00;13.33;;;;;6.33;68.00;103087.91;5071852;28;45248;-75
2023/12/18 02:48:32;;;;;;;;;16.33;15.00;;;;;6.52;68.55;103114.47;5061639;28;45121;-78
2023/12/18 02:50:58;;;;;;;;;11.00;10.67;;;;;5.94;68.63;103011.06;5039994;28;46723;-77
2023/12/18 02:53:23;;;;;;;;;18.33;15.67;;;;;6.53;68.15;103119.72;5039491;28;45377;-77
2023/12/18 02:55:48;;;;;;;;;20.33;18.00;;;;;6.51;68.56;103120.69;5059889;28;44956;-77
2023/12/18 02:58:14;;;;;;;;;20.00;17.00;;;;;6.05;68.14;103035.31;5063224;28;44948;-80
2023/12/18 03:00:39;;;;;;;;;19.33;16.33;;;;;6.54;68.22;103121.44;5065480;28;45082;-78
2023/12/18 03:03:04;;;;;;;;;19.00;16.33;;;;;6.55;68.17;103115.22;5068370;28;45153;-77
2023/12/18 03:05:30;;;;;;;;;16.67;14.67;;;;;6.40;68.09;103100.81;5060883;28;45001;-78
2023/12/18 03:07:55;;;;;;;;;19.00;16.00;;;;;6.40;68.38;103106.09;5048883;28;44999;-77
2023/12/18 03:10:20;;;;;;;;;15.00;12.67;;;;;5.55;68.48;102960.63;5061817;28;45222;-76
2023/12/18 03:12:46;;;;;;;;;14.00;12.67;;;;;6.12;68.13;103057.91;5058184;28;45208;-77
2023/12/18 03:15:11;;;;;;;;;18.00;15.00;;;;;6.51;67.91;103118.06;5069672;28;45448;-77
2023/12/18 03:17:37;;;;;;;;;18.67;15.33;;;;;6.14;68.07;103056.06;5050910;28;45654;-78
2023/12/18 03:20:03;;;;;;;;;20.33;16.67;;;;;6.51;68.21;103118.91;5064687;28;46742;-77
2023/12/18 03:22:28;;;;;;;;;20.00;17.33;;;;;6.49;68.03;103136.59;5066429;28;45163;-77
2023/12/18 03:24:54;;;;;;;;;12.33;10.67;;;;;6.51;68.58;103131.25;5062295;28;45152;-76
2023/12/18 03:27:19;;;;;;;;;17.33;15.00;;;;;6.48;67.79;103120.81;5064387;28;45025;-78
2023/12/18 03:29:44;;;;;;;;;13.33;13.00;;;;;6.52;67.81;103131.19;5058891;28;45934;-75
2023/12/18 03:32:10;;;;;;;;;15.33;13.67;;;;;6.40;67.69;103106.09;5052730;28;45237;-79
2023/12/18 03:34:35;;;;;;;;;14.00;12.00;;;;;6.30;68.53;103102.09;5059007;28;45154;-77
2023/12/18 03:37:00;;;;;;;;;13.00;12.33;;;;;6.07;68.17;103049.31;5061961;28;45090;-76
2023/12/18 03:39:26;;;;;;;;;16.67;13.00;;;;;6.36;68.19;103098.34;5057220;28;45720;-77
2023/12/18 03:41:51;;;;;;;;;20.33;17.33;;;;;6.37;68.19;103111.50;5052246;28;44862;-77
2023/12/18 03:44:16;;;;;;;;;21.00;15.00;;;;;6.40;68.42;103108.75;5063215;28;45146;-78
2023/12/18 03:46:42;;;;;;;;;13.00;12.67;;;;;6.07;68.64;103059.88;5056057;28;45179;-78
2023/12/18 03:49:08;;;;;;;;;13.67;12.67;;;;;6.37;68.33;103116.78;5061853;28;45610;-76
2023/12/18 03:51:33;;;;;;;;;18.33;14.00;;;;;6.25;68.94;103080.28;5068366;28;45324;-76
2023/12/18 03:53:59;;;;;;;;;14.00;13.00;;;;;6.23;68.66;103076.84;5058962;28;45060;-77
2023/12/18 03:56:24;;;;;;;;;15.33;15.33;;;;;6.38;68.82;103113.22;5057858;28;45047;-77
2023/12/18 03:58:49;;;;;;;;;16.33;13.33;;;;;6.16;69.04;103082.41;5054221;28;45320;-78
2023/12/18 04:01:15;;;;;;;;;15.67;14.67;;;;;6.30;68.10;103117.09;5059737;28;45274;-77
2023/12/18 04:03:40;;;;;;;;;19.67;14.00;;;;;6.21;68.85;103094.53;5062251;28;45150;-78
2023/12/18 04:06:09;;;;;;;;;16.33;12.67;;;;;6.36;67.96;103130.06;5058438;28;45264;-78
2023/12/18 04:08:34;;;;;;;;;14.00;12.00;;;;;6.31;68.22;103111.75;5057880;28;46106;-77
2023/12/18 04:11:00;;;;;;;;;19.00;14.00;;;;;6.32;68.09;103112.59;5067607;28;45436;-78
2023/12/18 04:13:25;;;;;;;;;14.67;12.33;;;;;6.37;68.18;103127.34;5052937;28;45086;-76
2023/12/18 04:15:51;;;;;;;;;14.67;12.00;;;;;6.25;68.69;103113.78;5055890;28;45202;-77
2023/12/18 04:18:16;;;;;;;;;15.33;15.33;;;;;6.31;68.58;103124.97;5063086;28;47011;-77
2023/12/18 04:20:41;;;;;;;;;14.67;14.67;;;;;6.18;69.10;103099.06;5070072;28;44940;-77
2023/12/18 04:23:07;;;;;;;;;22.67;13.33;;;;;6.34;68.46;103121.34;5058331;28;45249;-77
2023/12/18 04:25:32;;;;;;;;;19.33;17.00;;;;;6.37;69.16;103130.00;5061415;28;45381;-77
2023/12/18 04:27:58;;;;;;;;;17.67;17.00;;;;;6.23;68.47;103103.28;5053937;28;45217;-77
2023/12/18 04:30:23;;;;;;;;;17.67;14.00;;;;;6.41;68.58;103117.56;5063386;28;45148;-76
2023/12/18 04:32:48;;;;;;;;;17.67;17.00;;;;;6.22;68.57;103090.13;5052612;28;45404;-78
2023/12/18 04:35:14;;;;;;;;;21.33;12.67;;;;;6.37;68.54;103118.56;5064406;28;45142;-78
2023/12/18 04:37:39;;;;;;;;;14.67;13.00;;;;;6.33;69.32;103107.25;5051925;28;45258;-76
2023/12/18 04:40:05;;;;;;;;;19.00;15.33;;;;;5.90;69.04;103067.56;5057534;28;45230;-77
2023/12/18 04:42:30;;;;;;;;;17.67;14.33;;;;;6.22;69.64;103117.41;5055223;28;45752;-78
2023/12/18 04:44:57;;;;;;;;;16.00;14.00;;;;;6.13;69.11;103103.66;5064103;28;45260;-77
2023/12/18 04:47:22;;;;;;;;;21.00;18.00;;;;;6.12;69.52;103110.72;5066062;28;45708;-77
2023/12/18 04:49:48;;;;;;;;;17.00;16.33;;;;;5.88;69.69;103064.06;5059933;28;45175;-76
2023/12/18 04:52:13;;;;;;;;;17.67;14.67;;;;;6.14;69.61;103100.97;5058035;28;45341;-77
2023/12/18 04:54:38;;;;;;;;;15.67;13.00;;;;;6.09;68.99;103103.78;5057141;28;45387;-77
2023/12/18 04:57:04;;;;;;;;;13.00;12.33;;;;;6.18;69.23;103126.31;5062705;28;45711;-77
2023/12/18 04:59:30;;;;;;;;;17.33;15.67;;;;;6.04;69.33;103091.69;5054116;28;44917;-76
2023/12/18 05:01:55;;;;;;;;;16.67;12.67;;;;;6.10;69.20;103104.63;5068981;28;44955;-76
2023/12/18 05:04:20;;;;;;;;;17.67;12.67;;;;;6.20;69.05;103113.94;5062945;28;45006;-77
2023/12/18 05:06:46;;;;;;;;;15.00;15.00;;;;;6.02;69.50;103098.78;5062267;28;45751;-78
2023/12/18 05:09:11;;;;;;;;;12.00;12.00;;;;;6.07;68.71;103118.81;5055718;28;44926;-78
2023/12/18 05:11:36;;;;;;;;;19.00;12.00;;;;;4.67;68.96;102904.91;5063489;28;45099;-79
2023/12/18 05:14:02;;;;;;;;;18.33;12.67;;;;;5.93;69.77;103099.97;5066528;28;44922;-77
2023/12/18 05:16:27;;;;;;;;;16.00;14.00;;;;;5.80;69.10;103078.41;5068547;28;45155;-79
2023/12/18 05:18:53;;;;;;;;;14.00;12.33;;;;;6.08;68.74;103111.75;5051362;28;45134;-79
2023/12/18 05:21:19;;;;;;;;;14.33;12.33;;;;;6.02;68.72;103098.78;5067484;28;45136;-78
2023/12/18 05:23:47;;;;;;;;;17.00;13.67;;;;;5.80;69.05;103059.91;5061071;28;45232;-77
2023/12/18 05:26:12;;;;;;;;;14.00;10.33;;;;;6.07;68.50;103104.75;5065618;28;47496;-79
2023/12/18 05:28:38;;;;;;;;;21.67;14.67;;;;;5.99;68.51;103102.38;5054774;28;45242;-78
2023/12/18 05:31:03;;;;;;;;;19.00;16.33;;;;;5.97;67.82;103106.00;5061700;28;45502;-79
2023/12/18 05:33:29;;;;;;;;;15.67;13.00;;;;;5.93;68.91;103104.41;5061860;28;45082;-79
2023/12/18 05:35:54;;;;;;;;;14.33;12.33;;;;;5.68;68.12;103078.88;5069603;28;45430;-77
2023/12/18 05:38:19;;;;;;;;;21.33;13.33;;;;;5.45;68.90;103050.66;5052590;28;45005;-78
2023/12/18 05:40:45;;;;;;;;;12.67;11.00;;;;;5.82;68.31;103112.69;5064357;28;45313;-80
2023/12/18 05:43:10;;;;;;;;;16.00;12.00;;;;;5.71;68.46;103088.44;5062062;28;45110;-79
2023/12/18 05:45:35;;;;;;;;;18.00;13.00;;;;;5.93;68.42;103131.66;5057506;28;45405;-78
2023/12/18 05:48:01;;;;;;;;;16.00;13.00;;;;;5.80;68.87;103101.28;5052484;28;44910;-79
2023/12/18 05:50:27;;;;;;;;;12.00;11.00;;;;;5.94;68.38;103121.97;5062713;28;45359;-79
2023/12/18 05:52:52;;;;;;;;;15.00;15.00;;;;;5.93;68.81;103120.25;5053491;28;45172;-76
2023/12/18 05:55:18;;;;;;;;;18.33;13.67;;;;;5.95;68.25;103123.69;5062220;28;46963;-77
2023/12/18 05:57:43;;;;;;;;;16.33;12.33;;;;;5.91;68.50;103114.16;5056573;28;46425;-78
2023/12/18 06:00:09;;;;;;;;;13.67;12.33;;;;;5.06;68.96;102981.72;5067139;28;45047;-79
2023/12/18 06:02:36;;;;;;;;;13.00;12.67;;;;;5.85;68.69;103115.22;5067072;28;45148;-79
2023/12/18 06:05:02;;;;;;;;;12.67;11.00;;;;;4.85;68.78;102951.72;5050263;28;45090;-79
2023/12/18 06:07:27;;;;;;;;;15.67;12.33;;;;;5.84;67.89;103110.00;5068059;28;45450;-79
2023/12/18 06:09:53;;;;;;;;;12.00;11.33;;;;;5.89;68.06;103106.25;5052341;28;45315;-78
2023/12/18 06:12:18;;;;;;;;;11.00;10.33;;;;;5.84;68.06;103096.78;5060651;28;45175;-78
2023/12/18 06:14:43;;;;;;;;;11.33;11.33;;;;;5.76;68.59;103090.00;5069112;28;45554;-79
2023/12/18 06:17:09;;;;;;;;;16.00;12.67;;;;;5.72;67.87;103104.22;5064393;28;45071;-78
2023/12/18 06:19:35;;;;;;;;;11.33;11.33;;;;;5.78;67.68;103116.34;5064316;28;45183;-78
2023/12/18 06:22:01;;;;;;;;;16.67;12.33;;;;;5.53;68.04;103066.22;5056500;28;45158;-76
2023/12/18 06:24:27;;;;;;;;;10.67;10.67;;;;;5.77;67.93;103101.41;5049725;28;45253;-78
2023/12/18 06:26:53;;;;;;;;;12.00;12.00;;;;;5.90;68.19;103117.72;5062725;28;45396;-77
2023/12/18 06:29:19;;;;;;;;;15.33;12.00;;;;;5.69;68.41;103085.00;5060788;28;45563;-80
2023/12/18 06:31:44;;;;;;;;;16.00;15.00;;;;;5.83;68.41;103118.84;5060943;28;45151;-77
2023/12/18 06:34:11;;;;;;;;;10.33;9.00;;;;;5.77;68.56;103128.66;5051239;28;45330;-76
2023/12/18 06:36:36;;;;;;;;;21.33;17.00;;;;;5.71;68.73;103113.06;5062223;28;45058;-76
2023/12/18 06:39:03;;;;;;;;;17.00;15.33;;;;;5.79;68.28;103137.41;5044769;28;45406;-76
2023/12/18 06:41:28;;;;;;;;;16.67;15.33;;;;;5.80;68.02;103143.53;5060398;28;45049;-80
2023/12/18 06:43:54;;;;;;;;;12.00;11.00;;;;;5.04;68.18;103004.66;5060352;28;45688;-79
2023/12/18 06:46:20;;;;;;;;;19.00;13.00;;;;;5.22;67.80;103033.94;5060894;28;45016;-80
2023/12/18 06:48:45;;;;;;;;;17.00;11.33;;;;;5.80;68.06;103139.13;5053374;28;45126;-78
2023/12/18 06:51:11;;;;;;;;;15.00;12.00;;;;;5.82;68.33;103138.22;5057265;28;45277;-80
2023/12/18 06:53:36;;;;;;;;;14.33;14.33;;;;;5.82;67.36;103139.09;5056523;28;45810;-80
2023/12/18 06:56:02;;;;;;;;;14.33;14.33;;;;;5.78;67.67;103121.63;5064521;28;45201;-80
2023/12/18 06:58:27;;;;;;;;;15.00;12.33;;;;;5.31;67.87;103046.78;5065060;28;45104;-77
2023/12/18 07:00:52;;;;;;;;;18.00;17.00;;;;;5.12;68.24;103009.66;5061568;28;45178;-79
2023/12/18 07:03:18;;;;;;;;;19.33;15.33;;;;;5.06;67.70;102999.31;5054986;28;45106;-80
2023/12/18 07:05:44;;;;;;;;;17.67;12.33;;;;;5.67;67.43;103094.75;5065458;28;45047;-80
2023/12/18 07:08:10;;;;;;;;;13.00;11.00;;;;;5.83;68.40;103126.75;5055507;28;45397;-77
2023/12/18 07:10:35;;;;;;;;;11.67;11.00;;;;;5.65;67.70;103104.50;5068175;28;44986;-78
2023/12/18 07:13:00;;;;;;;;;15.00;13.00;;;;;5.13;68.12;103021.91;5066214;28;45134;-78
2023/12/18 07:15:26;;;;;;;;;9.33;6.00;;;;;5.79;68.46;103134.75;5064312;28;45070;-77
2023/12/18 07:17:52;;;;;;;;;16.00;14.67;;;;;5.76;68.54;103134.00;5074872;28;45049;-77
2023/12/18 07:20:17;;;;;;;;;11.00;10.33;;;;;5.44;68.13;103085.88;5068491;28;45087;-78
2023/12/18 07:22:43;;;;;;;;;18.67;12.33;;;;;5.31;68.13;103065.25;5073188;28;45647;-79
2023/12/18 07:25:11;;;;;;;;;16.00;15.00;;;;;5.71;68.65;103143.88;5066745;28;45103;-80
2023/12/18 07:27:36;;;;;;;;;14.67;13.33;;;;;5.71;68.59;103152.66;5065826;28;45103;-79
2023/12/18 07:30:03;;;;;;;;;22.33;18.00;;;;;5.72;68.80;103146.47;5055380;28;45048;-81
2023/12/18 07:32:33;;;;;;;;;27.67;21.00;;;;;5.65;68.20;103120.34;5046994;28;45641;-79
2023/12/18 07:35:00;;;;;;;;;15.33;13.33;;;;;5.71;67.71;103117.47;5051693;28;45540;-79
2023/12/18 07:37:27;;;;;;;;;19.67;13.67;;;;;5.90;67.15;103146.75;5072707;28;44910;-78
2023/12/18 07:39:53;;;;;;;;;13.00;13.00;;;;;6.02;67.14;103167.44;5066670;28;45291;-78
2023/12/18 07:42:18;;;;;;;;;17.67;14.33;;;;;5.82;66.96;103132.94;5056520;28;46176;-78
2023/12/18 07:44:44;;;;;;;;;12.00;11.00;;;;;5.49;66.91;103075.16;5055449;28;45263;-77
2023/12/18 07:47:10;;;;;;;;;13.00;12.00;;;;;5.50;66.65;103080.38;5061008;28;44943;-79
2023/12/18 07:49:35;;;;;;;;;16.33;14.00;;;;;5.64;67.61;103095.72;5070787;28;45248;-79
2023/12/18 07:52:01;;;;;;;;;11.67;9.33;;;;;6.06;66.90;103175.19;5055912;28;45505;-80
2023/12/18 07:54:26;;;;;;;;;10.33;10.33;;;;;5.35;67.67;103053.66;5064959;28;45381;-79
2023/12/18 07:56:52;;;;;;;;;18.00;13.67;;;;;5.95;67.23;103150.94;5061037;28;45291;-79
2023/12/18 07:59:17;;;;;;;;;17.00;17.00;;;;;6.06;66.97;103161.13;5053613;28;45503;-77
2023/12/18 08:01:43;;;;;;;;;16.00;16.00;;;;;5.87;66.61;103120.44;5059523;28;45221;-80
2023/12/18 08:04:10;;;;;;;;;20.00;14.33;;;;;6.09;65.47;103171.59;5063481;28;45232;-80
2023/12/18 08:06:36;;;;;;;;;16.67;16.00;;;;;5.43;65.52;103078.88;5060727;28;45101;-81
2023/12/18 08:09:01;;;;;;;;;20.00;18.33;;;;;5.24;66.20;103042.66;5059365;28;45226;-82
2023/12/18 08:11:27;;;;;;;;;20.67;15.67;;;;;5.41;65.71;103079.84;5065040;28;46133;-82
2023/12/18 08:13:52;;;;;;;;;20.33;16.00;;;;;6.00;65.95;103174.53;5056750;28;44929;-81
2023/12/18 08:16:18;;;;;;;;;17.33;14.00;;;;;5.58;65.92;103114.41;5057909;28;44860;-79
2023/12/18 08:18:44;;;;;;;;;25.67;19.67;;;;;5.80;65.81;103135.63;5068021;28;44897;-82
2023/12/18 08:21:16;;;;;;;;;13.67;13.67;;;;;5.16;66.25;103029.72;5059143;28;45477;-80
2023/12/18 08:23:41;;;;;;;;;12.33;12.00;;;;;5.72;65.53;103121.84;5068281;28;44927;-83
2023/12/18 08:26:09;;;;;;;;;18.33;15.33;;;;;4.97;66.12;103003.13;5057093;28;45233;-81
2023/12/18 08:28:34;;;;;;;;;14.67;14.67;;;;;4.95;66.13;103012.00;5063834;28;45223;-81
2023/12/18 08:30:59;;;;;;;;;13.00;11.67;;;;;4.77;65.99;102981.84;5056477;28;45565;-79
2023/12/18 08:33:25;;;;;;;;;21.33;17.67;;;;;5.67;65.59;103127.28;5069223;28;45048;-79
2023/12/18 08:35:50;;;;;;;;;19.33;17.00;;;;;5.90;66.28;103179.28;5054924;28;45068;-80
2023/12/18 08:38:16;;;;;;;;;22.33;17.00;;;;;5.92;66.71;103163.41;5062108;28;45074;-78
2023/12/18 08:40:41;;;;;;;;;22.00;16.00;;;;;5.54;66.21;103096.09;5068291;28;46038;-82
2023/12/18 08:43:07;;;;;;;;;20.00;17.33;;;;;5.32;65.99;103070.47;5057838;28;45122;-79
2023/12/18 08:45:32;;;;;;;;;15.00;15.00;;;;;5.39;66.38;103077.25;5066068;28;45108;-78
2023/12/18 08:47:59;;;;;;;;;16.67;14.33;;;;;5.53;66.02;103099.66;5067291;28;45066;-78
2023/12/18 08:50:26;;;;;;;;;12.67;10.33;;;;;4.89;65.97;103008.66;5067289;28;45859;-81
2023/12/18 08:52:52;;;;;;;;;22.33;16.33;;;;;5.83;66.02;103159.28;5070792;28;45527;-82
2023/12/18 08:55:19;;;;;;;;;13.33;12.33;;;;;5.71;66.29;103151.78;5069819;28;45150;-80
2023/12/18 08:57:45;;;;;;;;;14.33;14.33;;;;;4.62;65.69;102961.31;5063702;28;45127;-80
2023/12/18 09:00:12;;;;;;;;;16.67;13.33;;;;;5.85;65.63;103159.22;5058918;28;47246;-80
2023/12/18 09:02:38;;;;;;;;;15.67;11.67;;;;;4.05;66.82;102846.47;5068862;28;44950;-79
2023/12/18 09:05:03;;;;;;;;;16.00;14.33;;;;;5.64;65.09;103121.25;5059509;28;45009;-80
2023/12/18 09:07:28;;;;;;;;;16.33;14.00;;;;;5.91;64.71;103157.25;5061682;28;45213;-78
2023/12/18 09:09:54;;;;;;;;;19.33;18.00;;;;;5.34;64.60;103041.41;5058242;28;45185;-82
2023/12/18 09:12:19;;;;;;;;;14.33;14.33;;;;;6.01;64.80;103145.47;5068414;28;45201;-79
2023/12/18 09:14:45;;;;;;;;;20.00;12.33;;;;;5.97;65.40;103137.69;5063144;28;45115;-79
2023/12/18 09:17:10;;;;;;;;;14.33;13.00;;;;;6.09;65.19;103155.75;5066356;28;45167;-80
2023/12/18 09:19:35;;;;;;;;;17.00;13.00;;;;;5.24;65.00;103009.22;5061886;28;47238;-80
2023/12/18 09:22:01;;;;;;;;;13.00;13.00;;;;;5.97;64.22;103154.38;5085656;27;46113;-80
2023/12/18 09:24:28;;;;;;;;;21.67;18.67;;;;;5.77;64.53;103107.56;5055127;28;45022;-81
2023/12/18 09:26:54;;;;;;;;;13.67;13.00;;;;;5.94;64.51;103145.72;5060444;28;45119;-80
2023/12/18 09:29:19;;;;;;;;;12.67;12.67;;;;;5.93;64.30;103144.00;5073405;28;46157;-79
2023/12/18 09:31:45;;;;;;;;;21.67;17.67;;;;;5.97;63.82;103143.81;5066894;28;45128;-78
2023/12/18 09:34:10;;;;;;;;;12.67;11.67;;;;;5.67;63.84;103089.47;5061413;28;45227;-79
2023/12/18 09:36:36;;;;;;;;;13.33;12.33;;;;;5.68;63.84;103120.22;5054477;28;45096;-77
2023/12/18 09:39:02;;;;;;;;;14.33;12.00;;;;;5.80;63.85;103152.31;5072708;28;46785;-79
2023/12/18 09:41:27;;;;;;;;;11.67;11.67;;;;;5.72;63.76;103130.63;5070280;28;45316;-79
2023/12/18 09:43:54;;;;;;;;;18.00;13.00;;;;;5.82;63.36;103147.00;5058064;28;44735;-77
2023/12/18 09:46:24;;;;;;;;;14.33;14.33;;;;;5.51;63.84;103091.78;5056431;28;45182;-78
2023/12/18 09:48:50;;;;;;;;;16.00;13.33;;;;;5.88;63.93;103145.91;5064600;28;45880;-78
2023/12/18 09:51:19;;;;;;;;;14.33;14.33;;;;;5.84;63.51;103154.88;5066024;28;45004;-76
2023/12/18 09:53:46;;;;;;;;;17.67;11.00;;;;;5.26;64.12;103073.34;5061827;28;45026;-75
2023/12/18 09:56:11;;;;;;;;;17.33;12.00;;;;;5.84;63.67;103166.28;5056335;28;45171;-80
2023/12/18 09:58:39;;;;;;;;;17.33;15.00;;;;;5.87;63.42;103168.81;5058418;28;46108;-77
2023/12/18 10:01:05;;;;;;;;;14.00;11.33;;;;;5.90;63.77;103175.81;5063788;28;45127;-78
2023/12/18 10:03:31;;;;;;;;;11.67;11.00;;;;;5.95;63.67;103176.50;5061212;28;45174;-76
2023/12/18 10:05:56;;;;;;;;;16.00;13.00;;;;;5.15;63.51;103030.63;5064318;28;45145;-78
2023/12/18 10:08:22;;;;;;;;;17.00;13.33;;;;;5.98;62.83;103163.16;5068493;28;46497;-80
2023/12/18 10:10:47;;;;;;;;;12.00;12.00;;;;;5.92;63.79;103176.59;5065527;28;45247;-78
2023/12/18 10:13:13;;;;;;;;;17.00;14.67;;;;;4.48;63.39;102916.97;5058804;28;45575;-77
2023/12/18 10:15:42;;;;;;;;;19.00;13.00;;;;;4.93;63.36;102977.78;5052623;28;46770;-80
2023/12/18 10:18:09;;;;;;;;;19.33;14.00;;;;;4.92;63.58;102985.75;5065157;28;45671;-81
2023/12/18 10:20:34;;;;;;;;;16.33;15.67;;;;;5.85;63.36;103123.13;5076710;28;45390;-78
2023/12/18 10:23:00;;;;;;;;;16.00;14.33;;;;;5.90;62.98;103120.34;5066181;28;45540;-77
2023/12/18 10:25:26;;;;;;;;;21.00;17.33;;;;;6.03;63.07;103127.78;5062269;28;45486;-78
2023/12/18 10:27:55;;;;;;;;;18.33;16.67;;;;;5.93;62.42;103096.47;5071448;28;45231;-77
2023/12/18 10:30:25;;;;;;;;;23.00;16.33;;;;;6.27;62.74;103141.00;5054286;28;45443;-77
2023/12/18 10:32:51;;;;;;;;;21.00;16.67;;;;;6.18;62.18;103131.63;5074483;28;45716;-75
2023/12/18 10:35:17;;;;;;;;;11.67;11.67;;;;;6.00;62.80;103098.81;5072055;28;44816;-79
2023/12/18 10:37:48;;;;;;;;;18.33;18.00;;;;;6.16;62.58;103122.88;5065207;28;45517;-78
2023/12/18 10:40:18;;;;;;;;;19.00;16.00;;;;;5.92;62.87;103098.25;5053016;28;45459;-77
2023/12/18 10:42:51;;;;;;;;;19.00;16.00;;;;;6.08;61.96;103135.53;5047448;28;45327;-79
2023/12/18 10:45:16;;;;;;;;;23.67;20.33;;;;;5.76;62.56;103094.41;5083605;27;45606;-76
2023/12/18 10:47:43;;;;;;;;;18.33;15.33;;;;;6.07;63.30;103147.00;5051035;28;46290;-80
2023/12/18 10:50:11;;;;;;;;;21.33;19.33;;;;;6.12;63.00;103131.00;5054187;28;45483;-78
2023/12/18 10:52:38;;;;;;;;;18.33;15.67;;;;;5.86;62.79;103076.47;5054498;28;45437;-78
2023/12/18 10:55:07;;;;;;;;;20.67;17.33;;;;;5.77;62.58;103059.19;5042458;28;45195;-78
2023/12/18 10:57:35;;;;;;;;;21.00;17.33;;;;;6.27;62.16;103131.28;5044838;28;45683;-78
2023/12/18 11:00:01;;;;;;;;;17.00;15.00;;;;;5.70;62.41;103041.88;5039039;28;45595;-76
2023/12/18 11:02:27;;;;;;;;;21.00;18.00;;;;;5.72;62.60;103043.53;5049302;28;45644;-77
2023/12/18 11:04:56;;;;;;;;;21.00;18.00;;;;;6.16;63.04;103133.44;5052793;28;45474;-78
2023/12/18 11:07:22;;;;;;;;;12.00;11.00;;;;;6.20;62.69;103135.06;5053009;28;46176;-78
2023/12/18 11:09:49;;;;;;;;;13.67;11.00;;;;;5.96;62.07;103091.06;5063537;28;45110;-77